Weather at Santa Maria Airport

Public forecast

Using degrees Celsius for public forecast. Weather courtesy of forecast.io.

Current aviation weather report (METAR) for Santa Maria Airport

Retrieved 2020/10/31 18:30 UTC (0 seconds ago):

LPAZ 311830Z 22012KT 9999 FEW004 21/20 Q1022

Aviation forecast (TAF) for Santa Maria Airport

Retrieved 2020/10/31 18:18 UTC (0 seconds ago):

TAF LPAZ 311700Z 3118/0124 23013KT 9999 SCT012 TEMPO 3118/0124 SCT005 BKN012 PROB30 TEMPO 3118/0124 4000 DZ BR SCT003 BKN005